sensor_id;sensor_type;location;lat;lon;timestamp;temperature;humidity
48988;DHT22;34799;51.440;-2.534;2023-02-28T00:01:13;4.90;99.90
48988;DHT22;34799;51.440;-2.534;2023-02-28T00:03:40;4.90;99.90
48988;DHT22;34799;51.440;-2.534;2023-02-28T00:06:08;5.60;99.90
48988;DHT22;34799;51.440;-2.534;2023-02-28T00:08:38;4.90;99.90
48988;DHT22;34799;51.440;-2.534;2023-02-28T00:11:07;4.90;99.90
48988;DHT22;34799;51.440;-2.534;2023-02-28T00:13:35;4.90;99.90
48988;DHT22;34799;51.440;-2.534;2023-02-28T00:16:10;4.90;99.90
48988;DHT22;34799;51.440;-2.534;2023-02-28T00:18:39;4.90;99.90
48988;DHT22;34799;51.440;-2.534;2023-02-28T00:21:08;4.90;99.90
48988;DHT22;34799;51.440;-2.534;2023-02-28T00:23:35;4.90;99.90
48988;DHT22;34799;51.440;-2.534;2023-02-28T00:26:03;5.10;99.90
48988;DHT22;34799;51.440;-2.534;2023-02-28T00:28:30;4.80;99.90
48988;DHT22;34799;51.440;-2.534;2023-02-28T00:30:59;4.80;99.90
48988;DHT22;34799;51.440;-2.534;2023-02-28T00:33:28;4.80;99.90
48988;DHT22;34799;51.440;-2.534;2023-02-28T00:36:16;4.80;99.90
48988;DHT22;34799;51.440;-2.534;2023-02-28T00:38:43;4.80;99.90
48988;DHT22;34799;51.440;-2.534;2023-02-28T00:41:10;4.80;99.90
48988;DHT22;34799;51.440;-2.534;2023-02-28T00:43:39;4.70;99.90
48988;DHT22;34799;51.440;-2.534;2023-02-28T00:46:06;4.70;99.90
48988;DHT22;34799;51.440;-2.534;2023-02-28T00:48:33;5.50;99.90
48988;DHT22;34799;51.440;-2.534;2023-02-28T00:51:02;4.60;99.90
48988;DHT22;34799;51.440;-2.534;2023-02-28T00:53:30;4.60;99.90
48988;DHT22;34799;51.440;-2.534;2023-02-28T00:55:59;4.50;99.90
48988;DHT22;34799;51.440;-2.534;2023-02-28T00:58:26;4.50;99.90
48988;DHT22;34799;51.440;-2.534;2023-02-28T01:00:55;4.50;99.90
48988;DHT22;34799;51.440;-2.534;2023-02-28T01:03:22;4.40;99.90
48988;DHT22;34799;51.440;-2.534;2023-02-28T01:05:49;4.40;99.90
48988;DHT22;34799;51.440;-2.534;2023-02-28T01:08:16;4.40;99.90
48988;DHT22;34799;51.440;-2.534;2023-02-28T01:10:44;5.20;99.90
48988;DHT22;34799;51.440;-2.534;2023-02-28T01:13:12;4.30;99.90
48988;DHT22;34799;51.440;-2.534;2023-02-28T01:15:50;4.30;99.90
48988;DHT22;34799;51.440;-2.534;2023-02-28T01:18:18;4.20;99.90
48988;DHT22;34799;51.440;-2.534;2023-02-28T01:20:46;4.30;99.90
48988;DHT22;34799;51.440;-2.534;2023-02-28T01:23:17;4.20;99.90
48988;DHT22;34799;51.440;-2.534;2023-02-28T01:25:45;4.20;99.90
48988;DHT22;34799;51.440;-2.534;2023-02-28T01:28:12;4.20;99.90
48988;DHT22;34799;51.440;-2.534;2023-02-28T01:30:39;4.20;99.90
48988;DHT22;34799;51.440;-2.534;2023-02-28T01:33:08;4.40;99.90
48988;DHT22;34799;51.440;-2.534;2023-02-28T01:35:36;4.10;99.90
48988;DHT22;34799;51.440;-2.534;2023-02-28T01:38:03;4.20;99.90
48988;DHT22;34799;51.440;-2.534;2023-02-28T01:40:46;4.60;99.90
48988;DHT22;34799;51.440;-2.534;2023-02-28T01:43:22;4.20;99.90
48988;DHT22;34799;51.440;-2.534;2023-02-28T01:45:50;4.20;99.90
48988;DHT22;34799;51.440;-2.534;2023-02-28T01:48:19;4.20;99.90
48988;DHT22;34799;51.440;-2.534;2023-02-28T01:50:48;4.20;99.90
48988;DHT22;34799;51.440;-2.534;2023-02-28T01:53:24;4.60;99.90
48988;DHT22;34799;51.440;-2.534;2023-02-28T01:55:54;4.10;99.90
48988;DHT22;34799;51.440;-2.534;2023-02-28T01:58:22;4.10;99.90
48988;DHT22;34799;51.440;-2.534;2023-02-28T02:00:50;4.10;99.90
48988;DHT22;34799;51.440;-2.534;2023-02-28T02:03:19;5.40;99.90
48988;DHT22;34799;51.440;-2.534;2023-02-28T02:05:47;4.10;99.90
48988;DHT22;34799;51.440;-2.534;2023-02-28T02:08:21;4.10;99.90
48988;DHT22;34799;51.440;-2.534;2023-02-28T02:10:56;4.10;99.90
48988;DHT22;34799;51.440;-2.534;2023-02-28T02:13:40;5.60;99.90
48988;DHT22;34799;51.440;-2.534;2023-02-28T02:30:40;4.10;99.90
48988;DHT22;34799;51.440;-2.534;2023-02-28T02:38:52;4.10;99.90
48988;DHT22;34799;51.440;-2.534;2023-02-28T02:44:03;4.00;99.90
48988;DHT22;34799;51.440;-2.534;2023-02-28T02:46:38;4.00;99.90
48988;DHT22;34799;51.440;-2.534;2023-02-28T02:49:15;4.00;99.90
48988;DHT22;34799;51.440;-2.534;2023-02-28T02:51:44;4.50;99.90
48988;DHT22;34799;51.440;-2.534;2023-02-28T02:54:19;4.00;99.90
48988;DHT22;34799;51.440;-2.534;2023-02-28T02:56:49;3.90;99.90
48988;DHT22;34799;51.440;-2.534;2023-02-28T02:59:20;4.50;99.90
48988;DHT22;34799;51.440;-2.534;2023-02-28T03:01:54;3.90;99.90
48988;DHT22;34799;51.440;-2.534;2023-02-28T03:04:24;3.90;99.90
48988;DHT22;34799;51.440;-2.534;2023-02-28T03:06:54;3.90;99.90
48988;DHT22;34799;51.440;-2.534;2023-02-28T03:09:22;3.90;99.90
48988;DHT22;34799;51.440;-2.534;2023-02-28T03:11:51;3.90;99.90
48988;DHT22;34799;51.440;-2.534;2023-02-28T03:14:25;3.90;99.90
48988;DHT22;34799;51.440;-2.534;2023-02-28T03:30:27;4.10;99.90
48988;DHT22;34799;51.440;-2.534;2023-02-28T03:35:36;4.10;99.90
48988;DHT22;34799;51.440;-2.534;2023-02-28T03:41:13;4.20;99.90
48988;DHT22;34799;51.440;-2.534;2023-02-28T03:43:48;4.20;99.90
48988;DHT22;34799;51.440;-2.534;2023-02-28T03:46:18;4.20;99.90
48988;DHT22;34799;51.440;-2.534;2023-02-28T03:48:55;4.20;99.90
48988;DHT22;34799;51.440;-2.534;2023-02-28T03:51:26;4.20;99.90
48988;DHT22;34799;51.440;-2.534;2023-02-28T03:53:57;4.10;99.90
48988;DHT22;34799;51.440;-2.534;2023-02-28T03:56:33;4.20;99.90
48988;DHT22;34799;51.440;-2.534;2023-02-28T03:59:07;4.20;99.90
48988;DHT22;34799;51.440;-2.534;2023-02-28T04:01:46;4.20;99.90
48988;DHT22;34799;51.440;-2.534;2023-02-28T04:04:15;4.30;99.90
48988;DHT22;34799;51.440;-2.534;2023-02-28T04:06:43;4.10;99.90
48988;DHT22;34799;51.440;-2.534;2023-02-28T04:09:13;4.20;99.90
48988;DHT22;34799;51.440;-2.534;2023-02-28T04:11:42;4.20;99.90
48988;DHT22;34799;51.440;-2.534;2023-02-28T04:14:11;4.20;99.90
48988;DHT22;34799;51.440;-2.534;2023-02-28T04:16:41;4.10;99.90
48988;DHT22;34799;51.440;-2.534;2023-02-28T04:19:10;4.20;99.90
48988;DHT22;34799;51.440;-2.534;2023-02-28T04:21:46;4.20;99.90
48988;DHT22;34799;51.440;-2.534;2023-02-28T04:24:18;4.30;99.90
48988;DHT22;34799;51.440;-2.534;2023-02-28T04:26:47;4.30;99.90
48988;DHT22;34799;51.440;-2.534;2023-02-28T04:29:20;4.40;99.90
48988;DHT22;34799;51.440;-2.534;2023-02-28T04:31:47;4.40;99.90
48988;DHT22;34799;51.440;-2.534;2023-02-28T04:34:15;4.40;99.90
48988;DHT22;34799;51.440;-2.534;2023-02-28T04:36:44;4.50;99.90
48988;DHT22;34799;51.440;-2.534;2023-02-28T04:39:12;4.50;99.90
48988;DHT22;34799;51.440;-2.534;2023-02-28T04:41:40;4.60;99.90
48988;DHT22;34799;51.440;-2.534;2023-02-28T04:44:07;4.60;99.90
48988;DHT22;34799;51.440;-2.534;2023-02-28T04:46:34;4.60;99.90
48988;DHT22;34799;51.440;-2.534;2023-02-28T04:49:02;4.70;99.90
48988;DHT22;34799;51.440;-2.534;2023-02-28T04:51:29;4.70;99.90
48988;DHT22;34799;51.440;-2.534;2023-02-28T04:53:57;4.70;99.90
48988;DHT22;34799;51.440;-2.534;2023-02-28T04:56:24;4.60;99.90
48988;DHT22;34799;51.440;-2.534;2023-02-28T04:58:51;4.70;99.90
48988;DHT22;34799;51.440;-2.534;2023-02-28T05:01:28;4.70;99.90
48988;DHT22;34799;51.440;-2.534;2023-02-28T05:03:58;4.70;99.90
48988;DHT22;34799;51.440;-2.534;2023-02-28T05:06:27;4.70;99.90
48988;DHT22;34799;51.440;-2.534;2023-02-28T05:08:54;5.30;99.90
48988;DHT22;34799;51.440;-2.534;2023-02-28T05:13:52;6.20;99.90
48988;DHT22;34799;51.440;-2.534;2023-02-28T05:16:20;5.00;99.90
48988;DHT22;34799;51.440;-2.534;2023-02-28T05:18:47;4.90;99.90
48988;DHT22;34799;51.440;-2.534;2023-02-28T05:21:25;4.90;99.90
48988;DHT22;34799;51.440;-2.534;2023-02-28T05:23:54;6.30;99.90
48988;DHT22;34799;51.440;-2.534;2023-02-28T05:26:21;5.00;99.90
48988;DHT22;34799;51.440;-2.534;2023-02-28T05:28:49;5.10;99.90
48988;DHT22;34799;51.440;-2.534;2023-02-28T05:31:18;5.20;99.90
48988;DHT22;34799;51.440;-2.534;2023-02-28T05:33:45;5.20;99.90
48988;DHT22;34799;51.440;-2.534;2023-02-28T05:36:13;5.20;99.90
48988;DHT22;34799;51.440;-2.534;2023-02-28T05:38:40;5.20;99.90
48988;DHT22;34799;51.440;-2.534;2023-02-28T05:41:11;5.30;99.90
48988;DHT22;34799;51.440;-2.534;2023-02-28T05:43:38;5.30;99.90
48988;DHT22;34799;51.440;-2.534;2023-02-28T05:46:06;5.20;99.90
48988;DHT22;34799;51.440;-2.534;2023-02-28T05:48:35;5.80;99.90
48988;DHT22;34799;51.440;-2.534;2023-02-28T05:51:05;5.20;99.90
48988;DHT22;34799;51.440;-2.534;2023-02-28T05:53:32;5.20;99.90
48988;DHT22;34799;51.440;-2.534;2023-02-28T05:55:59;5.20;99.90
48988;DHT22;34799;51.440;-2.534;2023-02-28T05:58:27;5.30;99.90
48988;DHT22;34799;51.440;-2.534;2023-02-28T06:00:58;5.30;99.90
48988;DHT22;34799;51.440;-2.534;2023-02-28T06:03:26;5.30;99.90
48988;DHT22;34799;51.440;-2.534;2023-02-28T06:05:53;5.40;99.90
48988;DHT22;34799;51.440;-2.534;2023-02-28T06:08:20;5.30;99.90
48988;DHT22;34799;51.440;-2.534;2023-02-28T06:10:49;5.20;99.90
48988;DHT22;34799;51.440;-2.534;2023-02-28T06:13:16;5.10;99.90
48988;DHT22;34799;51.440;-2.534;2023-02-28T06:15:43;5.00;99.90
48988;DHT22;34799;51.440;-2.534;2023-02-28T06:18:10;5.00;99.90
48988;DHT22;34799;51.440;-2.534;2023-02-28T06:20:37;5.00;99.90
48988;DHT22;34799;51.440;-2.534;2023-02-28T06:23:04;5.00;99.90
48988;DHT22;34799;51.440;-2.534;2023-02-28T06:25:34;5.00;99.90
48988;DHT22;34799;51.440;-2.534;2023-02-28T06:28:00;5.00;99.90
48988;DHT22;34799;51.440;-2.534;2023-02-28T06:30:28;5.10;99.90
48988;DHT22;34799;51.440;-2.534;2023-02-28T06:32:56;5.10;99.90
48988;DHT22;34799;51.440;-2.534;2023-02-28T06:35:23;5.10;99.90
48988;DHT22;34799;51.440;-2.534;2023-02-28T06:37:50;5.00;99.90
48988;DHT22;34799;51.440;-2.534;2023-02-28T06:40:19;5.10;99.90
48988;DHT22;34799;51.440;-2.534;2023-02-28T06:42:46;5.10;99.90
48988;DHT22;34799;51.440;-2.534;2023-02-28T06:45:13;5.00;99.90
48988;DHT22;34799;51.440;-2.534;2023-02-28T06:47:41;5.80;99.90
48988;DHT22;34799;51.440;-2.534;2023-02-28T06:50:12;4.90;99.90
48988;DHT22;34799;51.440;-2.534;2023-02-28T06:52:39;4.90;99.90
48988;DHT22;34799;51.440;-2.534;2023-02-28T06:55:07;4.80;99.90
48988;DHT22;34799;51.440;-2.534;2023-02-28T06:57:35;4.80;99.90
48988;DHT22;34799;51.440;-2.534;2023-02-28T07:00:07;4.80;99.90
48988;DHT22;34799;51.440;-2.534;2023-02-28T07:02:36;4.80;99.90
48988;DHT22;34799;51.440;-2.534;2023-02-28T07:05:05;4.80;99.90
48988;DHT22;34799;51.440;-2.534;2023-02-28T07:07:32;4.70;99.90
48988;DHT22;34799;51.440;-2.534;2023-02-28T07:10:00;4.80;99.90
48988;DHT22;34799;51.440;-2.534;2023-02-28T07:12:27;4.80;99.90
48988;DHT22;34799;51.440;-2.534;2023-02-28T07:14:54;4.70;99.90
48988;DHT22;34799;51.440;-2.534;2023-02-28T07:17:24;4.60;99.90
48988;DHT22;34799;51.440;-2.534;2023-02-28T07:19:51;4.50;99.90
48988;DHT22;34799;51.440;-2.534;2023-02-28T07:22:18;4.80;99.90
48988;DHT22;34799;51.440;-2.534;2023-02-28T07:24:45;4.40;99.90
48988;DHT22;34799;51.440;-2.534;2023-02-28T07:27:12;5.50;99.90
48988;DHT22;34799;51.440;-2.534;2023-02-28T07:29:53;4.50;99.90
48988;DHT22;34799;51.440;-2.534;2023-02-28T07:32:20;5.10;99.90
48988;DHT22;34799;51.440;-2.534;2023-02-28T07:34:47;4.60;99.90
48988;DHT22;34799;51.440;-2.534;2023-02-28T07:37:15;4.60;99.90
48988;DHT22;34799;51.440;-2.534;2023-02-28T07:39:42;4.60;99.90
48988;DHT22;34799;51.440;-2.534;2023-02-28T07:42:09;4.60;99.90
48988;DHT22;34799;51.440;-2.534;2023-02-28T07:44:39;4.60;99.90
48988;DHT22;34799;51.440;-2.534;2023-02-28T07:47:08;4.60;99.90
48988;DHT22;34799;51.440;-2.534;2023-02-28T07:49:36;4.60;99.90
48988;DHT22;34799;51.440;-2.534;2023-02-28T07:52:05;5.10;99.90
48988;DHT22;34799;51.440;-2.534;2023-02-28T07:54:33;4.70;99.90
48988;DHT22;34799;51.440;-2.534;2023-02-28T07:57:00;5.20;99.90
48988;DHT22;34799;51.440;-2.534;2023-02-28T07:59:27;4.80;99.90
48988;DHT22;34799;51.440;-2.534;2023-02-28T08:01:58;5.60;99.90
48988;DHT22;34799;51.440;-2.534;2023-02-28T08:04:26;4.90;99.90
48988;DHT22;34799;51.440;-2.534;2023-02-28T08:06:53;4.90;99.90
48988;DHT22;34799;51.440;-2.534;2023-02-28T08:09:20;4.90;99.90
48988;DHT22;34799;51.440;-2.534;2023-02-28T08:11:47;5.00;99.90
48988;DHT22;34799;51.440;-2.534;2023-02-28T08:14:14;5.00;99.90
48988;DHT22;34799;51.440;-2.534;2023-02-28T08:16:42;5.00;99.90
48988;DHT22;34799;51.440;-2.534;2023-02-28T08:19:09;5.00;99.90
48988;DHT22;34799;51.440;-2.534;2023-02-28T08:21:36;5.60;99.90
48988;DHT22;34799;51.440;-2.534;2023-02-28T08:24:04;5.00;99.90
48988;DHT22;34799;51.440;-2.534;2023-02-28T08:26:31;5.00;99.90
48988;DHT22;34799;51.440;-2.534;2023-02-28T08:28:58;5.00;99.90
48988;DHT22;34799;51.440;-2.534;2023-02-28T08:31:27;5.00;99.90
48988;DHT22;34799;51.440;-2.534;2023-02-28T08:33:55;5.10;99.90
48988;DHT22;34799;51.440;-2.534;2023-02-28T08:36:26;6.10;99.90
48988;DHT22;34799;51.440;-2.534;2023-02-28T08:38:56;5.10;99.90
48988;DHT22;34799;51.440;-2.534;2023-02-28T08:41:23;5.80;99.90
48988;DHT22;34799;51.440;-2.534;2023-02-28T08:43:50;5.20;99.90
48988;DHT22;34799;51.440;-2.534;2023-02-28T08:46:17;5.20;99.90
48988;DHT22;34799;51.440;-2.534;2023-02-28T08:48:45;5.20;99.90
48988;DHT22;34799;51.440;-2.534;2023-02-28T08:51:15;5.20;99.90
48988;DHT22;34799;51.440;-2.534;2023-02-28T08:53:48;5.30;99.90
48988;DHT22;34799;51.440;-2.534;2023-02-28T08:56:18;5.90;99.90
48988;DHT22;34799;51.440;-2.534;2023-02-28T08:58:46;5.50;99.90
48988;DHT22;34799;51.440;-2.534;2023-02-28T09:01:18;5.60;99.90
48988;DHT22;34799;51.440;-2.534;2023-02-28T09:03:47;5.70;99.90
48988;DHT22;34799;51.440;-2.534;2023-02-28T09:06:16;6.40;99.90
48988;DHT22;34799;51.440;-2.534;2023-02-28T09:08:44;5.70;99.90
48988;DHT22;34799;51.440;-2.534;2023-02-28T09:11:11;5.60;99.90
48988;DHT22;34799;51.440;-2.534;2023-02-28T09:13:39;5.60;99.90
48988;DHT22;34799;51.440;-2.534;2023-02-28T09:16:12;5.60;99.90
48988;DHT22;34799;51.440;-2.534;2023-02-28T09:18:40;5.60;99.90
48988;DHT22;34799;51.440;-2.534;2023-02-28T09:21:11;5.60;99.90
48988;DHT22;34799;51.440;-2.534;2023-02-28T09:23:41;5.70;99.90
48988;DHT22;34799;51.440;-2.534;2023-02-28T09:26:18;5.80;99.90
48988;DHT22;34799;51.440;-2.534;2023-02-28T09:28:46;5.90;99.90
48988;DHT22;34799;51.440;-2.534;2023-02-28T09:31:16;5.90;99.90
48988;DHT22;34799;51.440;-2.534;2023-02-28T09:33:43;5.90;99.90
48988;DHT22;34799;51.440;-2.534;2023-02-28T09:36:10;6.40;99.90
48988;DHT22;34799;51.440;-2.534;2023-02-28T09:38:38;6.60;99.90
48988;DHT22;34799;51.440;-2.534;2023-02-28T09:41:14;5.90;99.90
48988;DHT22;34799;51.440;-2.534;2023-02-28T09:43:47;6.00;99.90
48988;DHT22;34799;51.440;-2.534;2023-02-28T09:48:54;6.30;99.90
48988;DHT22;34799;51.440;-2.534;2023-02-28T09:54:00;6.10;99.90
48988;DHT22;34799;51.440;-2.534;2023-02-28T09:56:35;6.20;99.90
48988;DHT22;34799;51.440;-2.534;2023-02-28T10:09:53;6.50;99.90
48988;DHT22;34799;51.440;-2.534;2023-02-28T10:12:22;6.50;99.90
48988;DHT22;34799;51.440;-2.534;2023-02-28T10:14:52;6.50;99.90
48988;DHT22;34799;51.440;-2.534;2023-02-28T10:17:23;6.90;99.90
48988;DHT22;34799;51.440;-2.534;2023-02-28T10:20:06;7.20;99.90
48988;DHT22;34799;51.440;-2.534;2023-02-28T10:23:03;6.80;99.90
48988;DHT22;34799;51.440;-2.534;2023-02-28T10:25:36;6.70;99.90
48988;DHT22;34799;51.440;-2.534;2023-02-28T10:28:15;7.00;99.90
48988;DHT22;34799;51.440;-2.534;2023-02-28T10:30:45;6.70;99.90
48988;DHT22;34799;51.440;-2.534;2023-02-28T10:33:24;6.70;99.90
48988;DHT22;34799;51.440;-2.534;2023-02-28T10:35:52;6.80;99.90
48988;DHT22;34799;51.440;-2.534;2023-02-28T10:38:33;7.70;99.90
48988;DHT22;34799;51.440;-2.534;2023-02-28T10:41:13;7.30;99.90
48988;DHT22;34799;51.440;-2.534;2023-02-28T10:43:43;7.00;99.90
48988;DHT22;34799;51.440;-2.534;2023-02-28T10:46:16;7.00;99.90
48988;DHT22;34799;51.440;-2.534;2023-02-28T10:49:14;6.90;99.90
48988;DHT22;34799;51.440;-2.534;2023-02-28T10:51:41;6.90;99.90
48988;DHT22;34799;51.440;-2.534;2023-02-28T10:54:35;7.00;99.90
48988;DHT22;34799;51.440;-2.534;2023-02-28T10:59:34;7.00;99.90
48988;DHT22;34799;51.440;-2.534;2023-02-28T11:02:01;7.90;99.90
48988;DHT22;34799;51.440;-2.534;2023-02-28T11:07:18;7.30;99.90
48988;DHT22;34799;51.440;-2.534;2023-02-28T11:09:57;7.30;99.90
48988;DHT22;34799;51.440;-2.534;2023-02-28T11:12:38;7.40;99.90
48988;DHT22;34799;51.440;-2.534;2023-02-28T11:15:35;8.20;99.90
48988;DHT22;34799;51.440;-2.534;2023-02-28T11:20:51;7.40;99.90
48988;DHT22;34799;51.440;-2.534;2023-02-28T11:23:19;7.70;99.90
48988;DHT22;34799;51.440;-2.534;2023-02-28T11:25:52;7.30;99.90
48988;DHT22;34799;51.440;-2.534;2023-02-28T11:28:31;7.20;99.90
48988;DHT22;34799;51.440;-2.534;2023-02-28T11:31:09;7.10;99.90
48988;DHT22;34799;51.440;-2.534;2023-02-28T11:33:59;7.90;99.90
48988;DHT22;34799;51.440;-2.534;2023-02-28T11:36:31;7.20;99.90
48988;DHT22;34799;51.440;-2.534;2023-02-28T11:39:01;7.20;99.90
48988;DHT22;34799;51.440;-2.534;2023-02-28T11:41:43;7.30;99.90
48988;DHT22;34799;51.440;-2.534;2023-02-28T11:44:18;7.30;99.90
48988;DHT22;34799;51.440;-2.534;2023-02-28T11:46:54;7.40;99.90
48988;DHT22;34799;51.440;-2.534;2023-02-28T12:03:42;7.60;99.90
48988;DHT22;34799;51.440;-2.534;2023-02-28T12:11:57;8.00;99.90
48988;DHT22;34799;51.440;-2.534;2023-02-28T12:21:05;8.20;99.90
48988;DHT22;34799;51.440;-2.534;2023-02-28T12:26:39;8.10;99.90
48988;DHT22;34799;51.440;-2.534;2023-02-28T12:29:28;8.00;99.90
48988;DHT22;34799;51.440;-2.534;2023-02-28T12:32:12;7.80;99.90
48988;DHT22;34799;51.440;-2.534;2023-02-28T12:34:48;7.80;99.90
48988;DHT22;34799;51.440;-2.534;2023-02-28T12:37:22;7.80;99.90
48988;DHT22;34799;51.440;-2.534;2023-02-28T12:39:55;7.80;99.90
48988;DHT22;34799;51.440;-2.534;2023-02-28T12:42:29;8.20;99.90
48988;DHT22;34799;51.440;-2.534;2023-02-28T12:45:17;8.40;99.90
48988;DHT22;34799;51.440;-2.534;2023-02-28T12:47:50;7.70;99.90
48988;DHT22;34799;51.440;-2.534;2023-02-28T12:50:21;8.00;99.90
48988;DHT22;34799;51.440;-2.534;2023-02-28T12:58:50;7.50;99.90
48988;DHT22;34799;51.440;-2.534;2023-02-28T13:01:51;7.50;99.90
48988;DHT22;34799;51.440;-2.534;2023-02-28T13:09:54;7.80;99.90
48988;DHT22;34799;51.440;-2.534;2023-02-28T13:12:22;7.90;99.90
48988;DHT22;34799;51.440;-2.534;2023-02-28T13:14:51;8.00;99.90
48988;DHT22;34799;51.440;-2.534;2023-02-28T13:17:28;8.40;99.90
48988;DHT22;34799;51.440;-2.534;2023-02-28T13:19:58;8.30;99.90
48988;DHT22;34799;51.440;-2.534;2023-02-28T13:22:43;8.40;99.90
48988;DHT22;34799;51.440;-2.534;2023-02-28T13:28:03;8.50;99.90
48988;DHT22;34799;51.440;-2.534;2023-02-28T13:33:32;8.60;99.90
48988;DHT22;34799;51.440;-2.534;2023-02-28T13:38:59;8.90;99.90
48988;DHT22;34799;51.440;-2.534;2023-02-28T13:44:15;8.30;99.90
48988;DHT22;34799;51.440;-2.534;2023-02-28T13:49:31;8.30;99.90
48988;DHT22;34799;51.440;-2.534;2023-02-28T13:58:15;8.30;99.90
48988;DHT22;34799;51.440;-2.534;2023-02-28T14:06:26;8.20;99.90
48988;DHT22;34799;51.440;-2.534;2023-02-28T14:09:29;8.20;99.90
48988;DHT22;34799;51.440;-2.534;2023-02-28T14:15:25;8.10;99.90
48988;DHT22;34799;51.440;-2.534;2023-02-28T14:17:56;8.00;99.90
48988;DHT22;34799;51.440;-2.534;2023-02-28T14:20:26;7.90;99.90
48988;DHT22;34799;51.440;-2.534;2023-02-28T14:25:43;7.80;99.90
48988;DHT22;34799;51.440;-2.534;2023-02-28T14:36:39;8.30;99.90
48988;DHT22;34799;51.440;-2.534;2023-02-28T14:39:16;8.60;99.90
48988;DHT22;34799;51.440;-2.534;2023-02-28T14:41:44;8.30;99.90
48988;DHT22;34799;51.440;-2.534;2023-02-28T14:44:21;8.90;99.90
48988;DHT22;34799;51.440;-2.534;2023-02-28T14:46:54;8.30;99.90
48988;DHT22;34799;51.440;-2.534;2023-02-28T14:52:19;8.40;99.90
48988;DHT22;34799;51.440;-2.534;2023-02-28T14:54:58;8.40;99.90
48988;DHT22;34799;51.440;-2.534;2023-02-28T14:57:30;8.30;99.90
48988;DHT22;34799;51.440;-2.534;2023-02-28T15:00:22;8.70;99.90
48988;DHT22;34799;51.440;-2.534;2023-02-28T15:02:50;8.30;99.90
48988;DHT22;34799;51.440;-2.534;2023-02-28T15:05:27;8.30;99.90
48988;DHT22;34799;51.440;-2.534;2023-02-28T15:08:12;8.40;99.90
48988;DHT22;34799;51.440;-2.534;2023-02-28T15:13:39;8.20;99.90
48988;DHT22;34799;51.440;-2.534;2023-02-28T15:16:25;8.10;99.90
48988;DHT22;34799;51.440;-2.534;2023-02-28T15:18:59;8.00;99.90
48988;DHT22;34799;51.440;-2.534;2023-02-28T15:21:31;7.90;99.90
48988;DHT22;34799;51.440;-2.534;2023-02-28T15:26:56;7.70;99.90
48988;DHT22;34799;51.440;-2.534;2023-02-28T15:29:25;7.80;99.90
48988;DHT22;34799;51.440;-2.534;2023-02-28T15:32:06;7.90;99.90
48988;DHT22;34799;51.440;-2.534;2023-02-28T15:34:42;8.00;99.90
48988;DHT22;34799;51.440;-2.534;2023-02-28T15:42:39;7.90;99.90
48988;DHT22;34799;51.440;-2.534;2023-02-28T15:45:27;8.00;99.90
48988;DHT22;34799;51.440;-2.534;2023-02-28T15:47:56;8.00;99.90
48988;DHT22;34799;51.440;-2.534;2023-02-28T15:50:30;8.30;99.90
48988;DHT22;34799;51.440;-2.534;2023-02-28T15:52:57;8.00;99.90
48988;DHT22;34799;51.440;-2.534;2023-02-28T15:55:27;8.00;99.90
48988;DHT22;34799;51.440;-2.534;2023-02-28T15:58:00;8.10;99.90
48988;DHT22;34799;51.440;-2.534;2023-02-28T16:00:29;8.50;99.90
48988;DHT22;34799;51.440;-2.534;2023-02-28T16:02:58;8.00;99.90
48988;DHT22;34799;51.440;-2.534;2023-02-28T16:05:28;8.00;99.90
48988;DHT22;34799;51.440;-2.534;2023-02-28T16:08:01;8.10;99.90
48988;DHT22;34799;51.440;-2.534;2023-02-28T16:10:29;8.20;99.90
48988;DHT22;34799;51.440;-2.534;2023-02-28T16:12:57;8.00;99.90
48988;DHT22;34799;51.440;-2.534;2023-02-28T16:15:28;8.00;99.90
48988;DHT22;34799;51.440;-2.534;2023-02-28T16:17:57;8.00;99.90
48988;DHT22;34799;51.440;-2.534;2023-02-28T16:20:30;8.60;99.90
48988;DHT22;34799;51.440;-2.534;2023-02-28T16:22:57;8.30;99.90
48988;DHT22;34799;51.440;-2.534;2023-02-28T16:25:40;8.40;99.90
48988;DHT22;34799;51.440;-2.534;2023-02-28T16:28:30;8.00;99.90
48988;DHT22;34799;51.440;-2.534;2023-02-28T16:31:04;8.00;99.90
48988;DHT22;34799;51.440;-2.534;2023-02-28T16:33:33;8.00;99.90
48988;DHT22;34799;51.440;-2.534;2023-02-28T16:36:00;7.90;99.90
48988;DHT22;34799;51.440;-2.534;2023-02-28T16:38:28;7.80;99.90
48988;DHT22;34799;51.440;-2.534;2023-02-28T16:40:56;7.80;99.90
48988;DHT22;34799;51.440;-2.534;2023-02-28T16:43:26;7.80;99.90
48988;DHT22;34799;51.440;-2.534;2023-02-28T16:45:58;7.80;99.90
48988;DHT22;34799;51.440;-2.534;2023-02-28T16:48:27;7.80;99.90
48988;DHT22;34799;51.440;-2.534;2023-02-28T16:50:54;7.80;99.90
48988;DHT22;34799;51.440;-2.534;2023-02-28T16:53:21;8.50;99.90
48988;DHT22;34799;51.440;-2.534;2023-02-28T16:55:48;8.50;99.90
48988;DHT22;34799;51.440;-2.534;2023-02-28T16:58:18;8.40;99.90
48988;DHT22;34799;51.440;-2.534;2023-02-28T17:00:48;8.10;99.90
48988;DHT22;34799;51.440;-2.534;2023-02-28T17:03:23;8.10;99.90
48988;DHT22;34799;51.440;-2.534;2023-02-28T17:05:58;8.30;99.90
48988;DHT22;34799;51.440;-2.534;2023-02-28T17:08:25;8.00;99.90
48988;DHT22;34799;51.440;-2.534;2023-02-28T17:10:55;8.60;99.90
48988;DHT22;34799;51.440;-2.534;2023-02-28T17:13:22;7.90;99.90
48988;DHT22;34799;51.440;-2.534;2023-02-28T17:15:49;7.90;99.90
48988;DHT22;34799;51.440;-2.534;2023-02-28T17:18:18;7.80;99.90
48988;DHT22;34799;51.440;-2.534;2023-02-28T17:20:46;8.00;99.90
48988;DHT22;34799;51.440;-2.534;2023-02-28T17:23:14;7.90;99.90
48988;DHT22;34799;51.440;-2.534;2023-02-28T17:25:43;7.70;99.90
48988;DHT22;34799;51.440;-2.534;2023-02-28T17:28:22;7.70;99.90
48988;DHT22;34799;51.440;-2.534;2023-02-28T17:30:49;7.60;99.90
48988;DHT22;34799;51.440;-2.534;2023-02-28T17:33:17;7.60;99.90
48988;DHT22;34799;51.440;-2.534;2023-02-28T17:35:44;7.60;99.90
48988;DHT22;34799;51.440;-2.534;2023-02-28T17:38:16;8.30;99.90
48988;DHT22;34799;51.440;-2.534;2023-02-28T17:40:45;7.70;99.90
48988;DHT22;34799;51.440;-2.534;2023-02-28T17:43:12;7.60;99.90
48988;DHT22;34799;51.440;-2.534;2023-02-28T17:45:39;8.30;99.90
48988;DHT22;34799;51.440;-2.534;2023-02-28T17:48:08;7.60;99.90
48988;DHT22;34799;51.440;-2.534;2023-02-28T17:50:36;7.50;99.90
48988;DHT22;34799;51.440;-2.534;2023-02-28T17:53:03;7.50;99.90
48988;DHT22;34799;51.440;-2.534;2023-02-28T17:55:30;7.40;99.90
48988;DHT22;34799;51.440;-2.534;2023-02-28T17:57:57;7.40;99.90
48988;DHT22;34799;51.440;-2.534;2023-02-28T18:00:25;7.40;99.90
48988;DHT22;34799;51.440;-2.534;2023-02-28T18:02:52;7.40;99.90
48988;DHT22;34799;51.440;-2.534;2023-02-28T18:05:19;7.40;99.90
48988;DHT22;34799;51.440;-2.534;2023-02-28T18:07:47;7.40;99.90
48988;DHT22;34799;51.440;-2.534;2023-02-28T18:10:19;7.40;99.90
48988;DHT22;34799;51.440;-2.534;2023-02-28T18:12:50;7.30;99.90
48988;DHT22;34799;51.440;-2.534;2023-02-28T18:15:18;7.30;99.90
48988;DHT22;34799;51.440;-2.534;2023-02-28T18:17:50;7.30;99.90
48988;DHT22;34799;51.440;-2.534;2023-02-28T18:20:17;7.70;99.90
48988;DHT22;34799;51.440;-2.534;2023-02-28T18:22:45;7.30;99.90
48988;DHT22;34799;51.440;-2.534;2023-02-28T18:25:13;7.90;99.90
48988;DHT22;34799;51.440;-2.534;2023-02-28T18:27:44;8.20;99.90
48988;DHT22;34799;51.440;-2.534;2023-02-28T18:30:20;7.30;99.90
48988;DHT22;34799;51.440;-2.534;2023-02-28T18:32:48;7.20;99.90
48988;DHT22;34799;51.440;-2.534;2023-02-28T18:35:15;7.50;99.90
48988;DHT22;34799;51.440;-2.534;2023-02-28T18:37:44;7.20;99.90